Time;durP1;ratioP1;P1;durP2;ratioP2;P2;SDS_P1;SDS_P2;PMS_P1;PMS_P2;Temp;Humidity;BMP_temperature;BMP_pressure;BME280_temperature;BME280_humidity;BME280_pressure;Samples;Min_cycle;Max_cycle;Signal;HPM_P1;HPM_P2
2022/03/30 00:01:11;;;;;;;15.00;8.20;;;16.40;40.30;;;;;;5131654;27;20027;-69
2022/03/30 00:03:37;;;;;;;11.90;8.38;;;16.40;40.40;;;;;;5135043;27;20035;-70
2022/03/30 00:06:04;;;;;;;14.63;8.70;;;16.40;40.40;;;;;;5136044;27;20068;-69
2022/03/30 00:08:30;;;;;;;12.05;7.53;;;16.30;40.10;;;;;;5133779;27;20019;-70
2022/03/30 00:10:56;;;;;;;13.07;8.15;;;16.30;40.00;;;;;;5116601;27;20035;-70
2022/03/30 00:13:23;;;;;;;14.07;7.50;;;16.30;40.00;;;;;;5134712;27;20027;-69
2022/03/30 00:15:49;;;;;;;14.35;7.85;;;16.30;39.80;;;;;;5135633;27;20031;-69
2022/03/30 00:18:15;;;;;;;13.38;7.32;;;16.30;40.90;;;;;;5117151;27;20157;-69
2022/03/30 00:20:41;;;;;;;14.85;8.68;;;16.30;40.10;;;;;;5135573;27;20279;-70
2022/03/30 00:23:07;;;;;;;16.55;8.45;;;16.30;40.30;;;;;;5134633;27;20031;-70
2022/03/30 00:25:33;;;;;;;14.05;7.47;;;16.30;40.20;;;;;;5135396;27;20110;-69
2022/03/30 00:27:58;;;;;;;13.25;7.80;;;16.30;40.10;;;;;;5135060;27;20031;-69
2022/03/30 00:30:24;;;;;;;15.68;8.23;;;16.30;40.10;;;;;;5132899;27;20034;-70
2022/03/30 00:32:50;;;;;;;15.23;8.27;;;16.30;40.60;;;;;;5121654;27;20096;-69
2022/03/30 00:35:16;;;;;;;19.10;9.13;;;16.20;40.50;;;;;;5134838;27;20348;-70
2022/03/30 00:37:42;;;;;;;11.70;8.90;;;16.20;40.30;;;;;;5135114;27;20019;-70
2022/03/30 00:40:11;;;;;;;15.55;7.72;;;16.20;40.40;;;;;;5126517;27;20069;-70
2022/03/30 00:42:37;;;;;;;11.90;7.47;;;16.10;40.40;;;;;;5114407;28;20058;-70
2022/03/30 00:45:14;;;;;;;12.82;8.02;;;16.10;40.40;;;;;;5115878;27;20431;-69
2022/03/30 00:47:40;;;;;;;14.70;7.95;;;16.10;40.70;;;;;;5116302;27;20474;-70
2022/03/30 00:50:09;;;;;;;11.70;7.82;;;16.00;40.70;;;;;;5134563;27;20050;-69
2022/03/30 00:52:35;;;;;;;10.30;7.55;;;16.00;40.80;;;;;;5135019;27;20027;-69
2022/03/30 00:55:01;;;;;;;12.05;8.52;;;16.00;40.90;;;;;;5116443;27;20027;-70
2022/03/30 00:57:29;;;;;;;13.52;9.00;;;15.90;41.20;;;;;;5134854;27;20019;-69
2022/03/30 00:59:56;;;;;;;12.73;8.18;;;15.90;41.60;;;;;;5133808;27;20023;-69
2022/03/30 01:02:23;;;;;;;14.02;8.65;;;15.80;41.50;;;;;;5115294;27;20043;-70
2022/03/30 01:04:50;;;;;;;11.15;7.95;;;15.80;42.20;;;;;;5116053;27;20035;-70
2022/03/30 01:07:16;;;;;;;14.27;9.18;;;15.80;42.20;;;;;;5134200;27;20061;-69
2022/03/30 01:09:42;;;;;;;17.60;9.23;;;15.70;42.00;;;;;;5120971;27;20038;-71
2022/03/30 01:12:10;;;;;;;16.45;9.40;;;15.70;41.90;;;;;;5115970;27;20054;-70
2022/03/30 01:14:36;;;;;;;12.65;7.95;;;15.70;42.20;;;;;;5134155;27;20023;-70
2022/03/30 01:17:04;;;;;;;12.48;8.55;;;15.60;41.90;;;;;;5115494;27;20027;-70
2022/03/30 01:19:31;;;;;;;15.18;8.57;;;15.60;41.90;;;;;;5115533;27;20027;-72
2022/03/30 01:21:58;;;;;;;10.68;7.47;;;15.60;42.00;;;;;;5113927;27;20027;-70
2022/03/30 01:24:24;;;;;;;12.05;8.10;;;15.50;41.90;;;;;;5133615;27;20031;-69
2022/03/30 01:26:50;;;;;;;14.07;8.07;;;15.50;41.80;;;;;;5134254;27;20026;-69
2022/03/30 01:34:45;;;;;;;15.98;8.45;;;15.40;42.60;;;;;;5113274;28;20097;-70
2022/03/30 01:37:12;;;;;;;18.10;10.50;;;15.40;43.20;;;;;;5113474;28;20038;-70
2022/03/30 01:39:39;;;;;;;17.30;10.98;;;15.30;42.70;;;;;;5111708;28;20090;-70
2022/03/30 01:42:05;;;;;;;15.18;9.20;;;15.30;42.40;;;;;;5113328;28;20092;-70
2022/03/30 01:44:32;;;;;;;21.27;10.20;;;15.30;42.90;;;;;;5128419;27;20035;-70
2022/03/30 01:46:57;;;;;;;17.20;11.02;;;15.30;43.20;;;;;;5115443;27;20019;-70
2022/03/30 01:49:24;;;;;;;16.05;10.30;;;15.30;43.30;;;;;;5112482;28;20092;-69
2022/03/30 01:51:52;;;;;;;14.60;9.45;;;15.20;43.00;;;;;;5115371;27;20027;-69
2022/03/30 01:54:20;;;;;;;14.52;9.57;;;15.20;43.00;;;;;;5115191;28;20031;-70
2022/03/30 01:56:46;;;;;;;13.13;9.57;;;15.20;43.10;;;;;;5133474;28;20019;-70
2022/03/30 01:59:13;;;;;;;17.77;11.52;;;15.20;42.90;;;;;;5132106;28;20032;-69
2022/03/30 02:01:39;;;;;;;15.35;9.35;;;15.20;42.90;;;;;;5131798;28;20474;-69
2022/03/30 02:04:08;;;;;;;15.52;10.15;;;15.20;42.80;;;;;;5133390;28;20118;-69
2022/03/30 02:06:35;;;;;;;13.85;9.88;;;15.20;43.00;;;;;;5115220;28;20489;-70
2022/03/30 02:09:01;;;;;;;18.60;10.35;;;15.20;42.90;;;;;;5115186;28;20047;-69
2022/03/30 02:11:27;;;;;;;13.88;9.77;;;15.30;43.10;;;;;;5132651;28;20038;-70
2022/03/30 02:13:53;;;;;;;14.15;9.40;;;15.30;43.10;;;;;;5114603;28;20035;-70
2022/03/30 02:16:19;;;;;;;15.60;9.77;;;15.30;43.20;;;;;;5114760;28;20023;-70
2022/03/30 02:18:46;;;;;;;18.00;10.32;;;15.30;43.40;;;;;;5115276;28;20019;-69
2022/03/30 02:21:12;;;;;;;13.63;9.65;;;15.30;44.00;;;;;;5133863;28;20027;-69
2022/03/30 02:23:39;;;;;;;14.27;10.02;;;15.40;43.40;;;;;;5130177;28;20027;-70
2022/03/30 02:26:05;;;;;;;16.38;9.50;;;15.30;43.40;;;;;;5094639;28;20027;-70
2022/03/30 02:28:32;;;;;;;17.10;10.75;;;15.30;43.50;;;;;;5112851;28;20023;-69
2022/03/30 02:30:58;;;;;;;13.68;9.25;;;15.30;43.50;;;;;;5128630;28;20019;-70
2022/03/30 02:33:24;;;;;;;14.82;10.15;;;15.30;43.40;;;;;;5132986;28;20034;-70
2022/03/30 02:35:51;;;;;;;19.13;11.43;;;15.40;43.40;;;;;;5135780;27;20039;-70
2022/03/30 02:38:17;;;;;;;17.40;11.60;;;15.40;43.40;;;;;;5137214;27;20033;-69
2022/03/30 02:40:44;;;;;;;16.38;10.48;;;15.40;43.40;;;;;;5136964;27;20463;-70
2022/03/30 02:43:10;;;;;;;15.77;10.77;;;15.40;43.30;;;;;;5137212;27;20080;-70
2022/03/30 02:45:36;;;;;;;14.18;10.27;;;15.40;43.20;;;;;;5136790;27;20035;-69
2022/03/30 02:48:17;;;;;;;16.73;10.90;;;15.30;43.00;;;;;;5118471;27;20450;-71
2022/03/30 02:50:45;;;;;;;17.48;10.73;;;15.40;43.00;;;;;;5137116;27;20070;-70
2022/03/30 02:53:11;;;;;;;19.67;11.45;;;15.30;43.00;;;;;;5137145;27;20114;-70
2022/03/30 02:55:37;;;;;;;19.15;11.25;;;15.30;43.00;;;;;;5137085;27;20087;-69
2022/03/30 02:58:04;;;;;;;16.92;10.30;;;15.30;42.80;;;;;;5136413;27;20027;-70
2022/03/30 03:00:31;;;;;;;16.05;10.20;;;15.30;42.70;;;;;;5117699;27;20069;-69
2022/03/30 03:02:57;;;;;;;18.10;10.27;;;15.30;42.70;;;;;;5101598;28;20087;-69
2022/03/30 03:05:23;;;;;;;17.10;10.43;;;15.30;43.20;;;;;;5097794;28;20115;-70
2022/03/30 03:07:49;;;;;;;13.90;10.18;;;15.30;43.40;;;;;;5133382;27;20023;-69
2022/03/30 03:10:15;;;;;;;12.43;8.43;;;15.20;43.40;;;;;;5135276;27;20030;-70
2022/03/30 03:12:40;;;;;;;17.05;10.82;;;15.20;43.50;;;;;;5136683;27;20031;-70
2022/03/30 03:15:07;;;;;;;14.82;10.25;;;15.20;43.70;;;;;;5118851;27;20023;-70
2022/03/30 03:17:32;;;;;;;18.95;11.70;;;15.20;43.60;;;;;;5137121;27;20645;-69
2022/03/30 03:19:58;;;;;;;16.85;11.25;;;15.20;43.60;;;;;;5118177;27;20019;-70
2022/03/30 03:22:24;;;;;;;20.45;11.95;;;15.20;43.60;;;;;;5135980;27;20163;-69
2022/03/30 03:24:50;;;;;;;16.20;11.05;;;15.10;43.60;;;;;;5118298;27;20030;-70
2022/03/30 03:27:15;;;;;;;17.23;9.77;;;15.20;43.50;;;;;;5136396;27;20436;-69
2022/03/30 03:29:41;;;;;;;18.48;10.40;;;15.10;43.70;;;;;;5135870;27;20026;-70
2022/03/30 03:32:07;;;;;;;15.80;9.38;;;15.10;43.90;;;;;;5116994;27;20027;-70
2022/03/30 03:34:33;;;;;;;17.80;9.30;;;15.10;44.00;;;;;;5118030;27;20026;-69
2022/03/30 03:36:59;;;;;;;17.75;9.50;;;15.10;44.10;;;;;;5117718;27;20019;-70
2022/03/30 03:39:25;;;;;;;14.90;9.85;;;15.10;44.50;;;;;;5128040;27;20116;-69
2022/03/30 03:41:50;;;;;;;23.88;10.48;;;15.10;44.50;;;;;;5108649;28;20423;-69
2022/03/30 03:44:16;;;;;;;16.63;11.57;;;15.10;44.50;;;;;;5115508;28;20032;-69
2022/03/30 03:46:42;;;;;;;19.05;11.88;;;15.00;44.50;;;;;;5115576;28;20034;-70
2022/03/30 03:49:08;;;;;;;17.08;9.88;;;15.10;44.40;;;;;;5115252;28;20037;-70
2022/03/30 03:51:34;;;;;;;20.40;12.35;;;15.00;44.30;;;;;;5115462;28;20088;-69
2022/03/30 03:53:59;;;;;;;15.32;10.52;;;15.00;44.40;;;;;;5097112;28;20028;-69
2022/03/30 03:56:25;;;;;;;18.45;10.45;;;15.00;44.40;;;;;;5114842;28;20110;-70
2022/03/30 03:58:52;;;;;;;17.65;10.00;;;15.00;44.60;;;;;;5115235;28;20024;-70
2022/03/30 04:01:18;;;;;;;14.05;10.32;;;15.00;44.80;;;;;;5114865;28;20031;-70
2022/03/30 04:03:44;;;;;;;19.15;10.63;;;14.90;44.80;;;;;;5115056;28;20114;-70
2022/03/30 04:06:10;;;;;;;21.95;11.23;;;14.90;44.70;;;;;;5099230;28;20158;-70
2022/03/30 04:08:36;;;;;;;17.02;10.48;;;14.90;45.00;;;;;;5100206;28;20024;-70
2022/03/30 04:11:01;;;;;;;17.08;10.23;;;14.90;44.90;;;;;;5115175;28;20028;-70
2022/03/30 04:13:27;;;;;;;17.02;11.77;;;14.90;44.90;;;;;;5097037;28;20032;-71
2022/03/30 04:15:53;;;;;;;15.98;9.95;;;14.90;45.10;;;;;;5114939;28;20051;-70
2022/03/30 04:18:21;;;;;;;18.85;10.32;;;14.90;45.00;;;;;;5115091;28;20374;-70
2022/03/30 04:20:46;;;;;;;16.90;11.05;;;14.90;45.20;;;;;;5114502;28;20433;-70
2022/03/30 04:23:12;;;;;;;21.30;13.50;;;14.90;45.20;;;;;;5114077;28;20031;-70
2022/03/30 04:25:38;;;;;;;23.42;14.77;;;14.90;45.30;;;;;;5114932;28;20095;-71
2022/03/30 04:28:04;;;;;;;22.42;13.77;;;14.90;45.30;;;;;;5115125;28;20096;-71
2022/03/30 04:30:30;;;;;;;20.77;13.13;;;15.00;45.70;;;;;;5095474;28;20042;-71
2022/03/30 04:32:56;;;;;;;19.85;11.10;;;15.00;45.70;;;;;;5114530;28;20044;-70
2022/03/30 04:35:27;;;;;;;21.40;11.98;;;15.00;45.50;;;;;;5114918;28;20103;-70
2022/03/30 04:37:54;;;;;;;18.33;12.57;;;15.00;45.70;;;;;;5095804;28;20053;-71
2022/03/30 04:40:21;;;;;;;21.08;11.80;;;15.00;45.80;;;;;;5114375;28;20055;-70
2022/03/30 04:42:48;;;;;;;20.33;12.57;;;15.00;45.90;;;;;;5114322;28;20035;-71
2022/03/30 04:45:14;;;;;;;20.42;12.30;;;15.00;45.90;;;;;;5113548;28;20027;-71
2022/03/30 04:47:40;;;;;;;17.77;12.15;;;15.00;46.00;;;;;;5094567;28;20027;-72
2022/03/30 04:50:06;;;;;;;17.48;12.07;;;15.00;46.00;;;;;;5093984;28;20356;-71
2022/03/30 04:52:32;;;;;;;18.13;11.63;;;15.10;46.00;;;;;;5094077;28;20028;-70
2022/03/30 04:54:59;;;;;;;16.95;11.88;;;15.00;45.90;;;;;;5094071;28;20030;-71
2022/03/30 04:57:25;;;;;;;22.92;12.23;;;15.00;46.00;;;;;;5092366;28;20039;-70
2022/03/30 04:59:50;;;;;;;23.10;13.05;;;15.10;45.90;;;;;;5114000;28;20028;-70
2022/03/30 05:02:16;;;;;;;15.73;11.15;;;15.10;46.00;;;;;;5114177;28;20024;-70
2022/03/30 05:04:42;;;;;;;19.58;11.15;;;15.10;45.90;;;;;;5098585;28;20028;-71
2022/03/30 05:07:09;;;;;;;15.70;9.75;;;15.10;45.80;;;;;;5075584;28;20093;-70
2022/03/30 05:09:35;;;;;;;17.63;11.73;;;15.10;46.00;;;;;;5094028;28;20024;-71
2022/03/30 05:12:02;;;;;;;19.98;10.60;;;15.10;45.90;;;;;;5113889;28;20447;-71
2022/03/30 05:14:28;;;;;;;16.52;10.65;;;15.10;45.80;;;;;;5114070;28;20023;-70
2022/03/30 05:16:54;;;;;;;20.75;11.32;;;15.20;45.90;;;;;;5113958;28;20035;-70
2022/03/30 05:19:20;;;;;;;21.35;12.57;;;15.20;46.00;;;;;;5095221;28;20028;-70
2022/03/30 05:21:46;;;;;;;26.70;13.15;;;15.20;46.30;;;;;;5111021;28;20383;-71
2022/03/30 05:24:12;;;;;;;20.25;12.35;;;15.20;46.10;;;;;;5113056;28;20120;-71
2022/03/30 05:26:38;;;;;;;23.95;15.40;;;15.20;46.10;;;;;;5095419;28;20489;-70
2022/03/30 05:29:03;;;;;;;26.50;15.13;;;15.20;46.10;;;;;;5113846;28;20114;-71
2022/03/30 05:31:29;;;;;;;27.30;14.80;;;15.20;46.00;;;;;;5113234;28;20031;-70
2022/03/30 05:33:55;;;;;;;22.45;14.45;;;15.30;46.00;;;;;;5095392;28;20433;-71
2022/03/30 05:36:21;;;;;;;25.38;15.45;;;15.30;46.60;;;;;;5112762;28;20141;-70
2022/03/30 05:38:48;;;;;;;23.65;14.82;;;15.30;46.00;;;;;;5115337;27;20102;-70
2022/03/30 05:41:15;;;;;;;23.85;14.30;;;15.30;45.80;;;;;;5115865;27;20032;-70
2022/03/30 05:43:41;;;;;;;26.80;15.18;;;15.40;45.70;;;;;;5115749;28;20058;-71
2022/03/30 05:46:08;;;;;;;25.33;13.80;;;15.40;45.70;;;;;;5134438;27;20035;-72
2022/03/30 05:48:34;;;;;;;21.20;12.30;;;15.50;45.80;;;;;;5125325;27;20083;-71
2022/03/30 05:50:59;;;;;;;18.73;11.93;;;15.50;45.70;;;;;;5094996;28;20115;-70
2022/03/30 05:53:25;;;;;;;20.45;12.18;;;15.50;45.70;;;;;;5113157;28;20028;-70
2022/03/30 05:55:51;;;;;;;20.83;13.07;;;15.60;45.80;;;;;;5113441;28;20030;-72
2022/03/30 05:58:17;;;;;;;23.55;14.35;;;15.60;45.70;;;;;;5113384;28;20027;-70
2022/03/30 06:00:43;;;;;;;19.77;13.80;;;15.70;45.70;;;;;;5113453;28;20043;-71
2022/03/30 06:03:12;;;;;;;22.75;14.15;;;15.70;45.60;;;;;;5113408;28;20076;-71
2022/03/30 06:05:38;;;;;;;24.13;13.45;;;15.80;45.70;;;;;;5113800;28;20046;-71
2022/03/30 06:08:05;;;;;;;25.15;15.23;;;15.90;45.60;;;;;;5113393;28;20545;-71
2022/03/30 06:10:31;;;;;;;21.70;13.98;;;16.00;45.30;;;;;;5115310;28;20032;-71
2022/03/30 06:12:57;;;;;;;24.30;16.05;;;16.10;45.20;;;;;;5117686;27;20069;-70
2022/03/30 06:15:24;;;;;;;25.90;16.95;;;16.20;45.00;;;;;;5099354;28;20080;-71
2022/03/30 06:17:51;;;;;;;22.50;14.95;;;16.20;44.70;;;;;;5114131;27;20023;-71
2022/03/30 06:20:22;;;;;;;25.02;15.00;;;16.30;44.60;;;;;;5118633;27;20028;-70
2022/03/30 06:22:48;;;;;;;22.63;14.18;;;16.40;44.60;;;;;;5137507;27;20102;-71
2022/03/30 06:25:14;;;;;;;22.33;13.95;;;16.50;44.50;;;;;;5106970;28;20431;-70
2022/03/30 06:27:41;;;;;;;26.20;14.88;;;16.50;44.30;;;;;;5098997;28;20024;-71
2022/03/30 06:30:08;;;;;;;27.65;17.70;;;16.70;44.70;;;;;;5098937;28;20028;-71
2022/03/30 06:32:35;;;;;;;27.88;16.25;;;16.70;44.10;;;;;;5117194;27;20023;-71
2022/03/30 06:35:03;;;;;;;24.90;16.33;;;16.80;43.90;;;;;;5098426;28;20114;-71
2022/03/30 06:37:29;;;;;;;27.27;15.57;;;16.90;43.60;;;;;;5117028;28;20039;-70
2022/03/30 06:39:54;;;;;;;30.02;14.65;;;16.90;43.50;;;;;;5129074;27;20047;-70
2022/03/30 06:42:21;;;;;;;32.40;16.45;;;17.00;43.50;;;;;;5137646;27;20149;-71
2022/03/30 06:44:46;;;;;;;31.88;15.73;;;17.10;43.20;;;;;;5136192;27;20023;-71
2022/03/30 06:47:12;;;;;;;24.88;15.50;;;17.20;43.10;;;;;;5135510;27;20057;-71
2022/03/30 06:49:38;;;;;;;29.80;15.45;;;17.20;42.90;;;;;;5118923;27;20027;-70
2022/03/30 06:52:06;;;;;;;24.65;15.60;;;17.30;42.80;;;;;;5117853;27;20042;-71
2022/03/30 06:54:34;;;;;;;25.88;15.95;;;17.40;42.70;;;;;;5116526;27;20080;-71
2022/03/30 06:57:00;;;;;;;26.45;15.10;;;17.40;42.50;;;;;;5137139;27;20023;-70
2022/03/30 06:59:27;;;;;;;27.35;18.20;;;17.50;42.40;;;;;;5116792;27;20029;-70
2022/03/30 07:01:55;;;;;;;27.98;15.80;;;17.60;42.10;;;;;;5135516;27;20023;-70
2022/03/30 07:04:21;;;;;;;32.55;17.00;;;17.60;42.00;;;;;;5131771;27;20088;-69
2022/03/30 07:12:15;;;;;;;36.33;19.83;;;17.70;41.40;;;;;;5136641;27;20547;-70
2022/03/30 07:14:41;;;;;;;28.70;16.42;;;17.80;41.30;;;;;;5118037;27;20031;-71
2022/03/30 07:17:07;;;;;;;29.65;16.98;;;17.80;41.30;;;;;;5137055;27;20502;-71
2022/03/30 07:19:32;;;;;;;26.42;17.63;;;17.90;41.30;;;;;;5135501;27;20055;-71
2022/03/30 07:21:58;;;;;;;35.05;16.35;;;17.90;41.30;;;;;;5117133;27;20061;-70
2022/03/30 07:24:24;;;;;;;34.30;17.55;;;18.00;41.30;;;;;;5108665;28;20034;-71
2022/03/30 07:26:50;;;;;;;36.63;17.75;;;18.00;41.10;;;;;;5101958;27;20114;-71
2022/03/30 07:29:16;;;;;;;40.30;18.77;;;18.10;40.70;;;;;;5130802;27;20019;-71
2022/03/30 07:31:43;;;;;;;34.00;17.83;;;18.10;40.60;;;;;;5108422;28;20119;-72
2022/03/30 07:34:09;;;;;;;37.72;20.40;;;18.10;40.60;;;;;;5111002;27;20030;-70
2022/03/30 07:36:35;;;;;;;33.20;19.17;;;18.10;40.60;;;;;;5117402;27;20020;-71
2022/03/30 07:39:01;;;;;;;31.27;17.73;;;18.20;40.70;;;;;;5133887;27;20055;-71
2022/03/30 07:41:27;;;;;;;24.95;16.75;;;18.30;40.60;;;;;;5135197;27;20512;-71
2022/03/30 07:43:52;;;;;;;31.73;18.35;;;18.40;40.60;;;;;;5134904;27;20070;-71
2022/03/30 07:46:19;;;;;;;27.30;17.65;;;18.50;40.50;;;;;;5140327;27;20035;-69
2022/03/30 07:48:44;;;;;;;29.85;17.27;;;18.50;40.40;;;;;;5116925;27;20023;-69
2022/03/30 07:51:10;;;;;;;30.83;18.58;;;18.60;40.20;;;;;;5133983;27;20023;-69
2022/03/30 07:53:36;;;;;;;28.75;17.02;;;18.70;40.10;;;;;;5112013;27;20583;-71
2022/03/30 07:56:02;;;;;;;27.33;16.90;;;18.80;40.00;;;;;;5134356;27;20022;-70
2022/03/30 07:58:28;;;;;;;26.27;16.45;;;18.90;39.90;;;;;;5135030;27;20106;-71
2022/03/30 08:00:53;;;;;;;31.70;18.05;;;19.00;39.70;;;;;;5134957;27;20730;-70
2022/03/30 08:03:19;;;;;;;29.23;18.85;;;19.00;39.40;;;;;;5102365;27;20080;-67
2022/03/30 08:05:45;;;;;;;24.98;18.30;;;19.10;39.40;;;;;;5128341;27;20031;-71
2022/03/30 08:08:11;;;;;;;28.85;16.80;;;19.10;39.10;;;;;;5128302;27;20169;-70
2022/03/30 08:10:37;;;;;;;31.50;17.38;;;19.20;39.10;;;;;;5101797;27;20034;-70
2022/03/30 08:13:04;;;;;;;28.00;16.77;;;19.30;39.10;;;;;;5114919;27;20465;-70
2022/03/30 08:15:31;;;;;;;24.58;16.15;;;19.40;38.90;;;;;;5105803;27;20537;-70
2022/03/30 08:17:57;;;;;;;25.48;15.63;;;19.40;38.60;;;;;;5134745;27;20030;-70
2022/03/30 08:23:08;;;;;;;23.88;15.75;;;19.50;38.40;;;;;;5134899;27;20114;-70
2022/03/30 08:25:35;;;;;;;23.95;16.17;;;19.50;38.20;;;;;;5116707;27;20122;-70
2022/03/30 08:28:02;;;;;;;25.27;16.08;;;19.60;38.10;;;;;;5116414;27;20027;-70
2022/03/30 08:30:28;;;;;;;29.98;16.90;;;19.60;38.00;;;;;;5135142;27;20029;-70
2022/03/30 08:32:54;;;;;;;27.85;16.10;;;19.60;37.70;;;;;;5135717;27;20035;-70
2022/03/30 08:35:22;;;;;;;26.70;16.48;;;19.70;37.90;;;;;;5115689;27;20428;-71
2022/03/30 08:37:48;;;;;;;29.60;17.10;;;19.70;37.60;;;;;;5115482;27;20456;-70
2022/03/30 08:40:14;;;;;;;37.92;18.67;;;19.80;37.50;;;;;;5134704;27;20448;-71
2022/03/30 08:42:41;;;;;;;26.35;18.42;;;19.80;37.50;;;;;;5116136;27;20027;-70
2022/03/30 08:45:09;;;;;;;31.48;19.33;;;19.90;37.40;;;;;;5116081;27;20084;-70
2022/03/30 08:47:36;;;;;;;27.13;17.45;;;20.00;37.40;;;;;;5134416;27;20408;-70
2022/03/30 08:50:04;;;;;;;22.20;15.95;;;19.90;37.30;;;;;;5133620;27;20031;-69
2022/03/30 08:52:30;;;;;;;23.48;16.05;;;20.10;37.60;;;;;;5134011;27;20027;-70
2022/03/30 08:54:59;;;;;;;33.10;18.00;;;20.20;37.30;;;;;;5115588;27;20100;-70
2022/03/30 08:57:25;;;;;;;30.38;18.65;;;20.20;36.80;;;;;;5134675;27;20052;-71
2022/03/30 08:59:59;;;;;;;25.08;16.60;;;20.30;36.70;;;;;;5116290;27;20023;-70
2022/03/30 09:02:45;;;;;;;25.83;17.93;;;20.40;36.70;;;;;;5129696;27;20124;-70
2022/03/30 09:05:12;;;;;;;24.35;18.15;;;20.50;36.40;;;;;;5133236;27;20042;-70
2022/03/30 09:07:40;;;;;;;21.67;15.70;;;20.60;36.00;;;;;;5131314;27;20019;-71
2022/03/30 09:10:12;;;;;;;23.55;16.58;;;20.60;35.90;;;;;;5133495;27;20019;-70
2022/03/30 09:12:39;;;;;;;28.45;17.23;;;20.70;36.00;;;;;;5133903;27;20030;-71
2022/03/30 09:15:05;;;;;;;32.05;18.63;;;20.70;35.50;;;;;;5115191;27;20028;-70
2022/03/30 09:17:39;;;;;;;25.40;17.13;;;20.70;35.20;;;;;;5115608;27;20393;-71
2022/03/30 09:20:16;;;;;;;22.08;16.15;;;20.70;35.20;;;;;;5115635;27;20466;-70
2022/03/30 09:22:50;;;;;;;23.20;15.98;;;20.80;35.30;;;;;;5132449;27;20497;-71
2022/03/30 09:25:17;;;;;;;24.30;15.65;;;20.80;35.30;;;;;;5134500;27;20030;-70
2022/03/30 09:27:44;;;;;;;21.15;15.38;;;20.90;35.20;;;;;;5134331;27;20050;-71
2022/03/30 09:30:14;;;;;;;25.73;17.40;;;21.00;35.30;;;;;;5128807;27;20027;-71
2022/03/30 09:32:42;;;;;;;29.90;16.17;;;21.00;35.00;;;;;;5113766;27;20023;-70
2022/03/30 09:35:27;;;;;;;34.00;17.27;;;21.10;35.00;;;;;;5133714;27;20019;-71
2022/03/30 09:38:03;;;;;;;25.60;16.02;;;21.10;34.80;;;;;;5115116;27;20030;-71
2022/03/30 09:40:47;;;;;;;25.67;16.15;;;21.20;34.80;;;;;;5115322;27;20071;-71
2022/03/30 09:43:34;;;;;;;24.05;17.02;;;21.30;35.00;;;;;;5115641;27;20489;-70
2022/03/30 09:46:03;;;;;;;29.23;16.17;;;21.30;34.60;;;;;;5128870;27;20084;-70
2022/03/30 09:48:31;;;;;;;24.90;16.15;;;21.40;34.10;;;;;;5133428;27;20099;-71
2022/03/30 09:50:58;;;;;;;22.15;16.08;;;21.50;34.20;;;;;;5133711;27;20027;-70
2022/03/30 09:53:26;;;;;;;17.70;13.48;;;21.50;34.10;;;;;;5133436;27;20031;-70
2022/03/30 09:55:57;;;;;;;26.40;16.08;;;21.50;34.20;;;;;;5133978;27;20027;-69
2022/03/30 09:58:25;;;;;;;25.52;15.73;;;21.60;34.20;;;;;;5116319;28;20019;-69
2022/03/30 10:01:24;;;;;;;26.92;17.45;;;21.70;34.00;;;;;;5133969;28;20375;-69
2022/03/30 10:03:56;;;;;;;22.88;15.30;;;21.80;34.10;;;;;;5114789;28;20039;-70
2022/03/30 10:06:33;;;;;;;24.75;15.27;;;21.80;33.50;;;;;;5110295;28;20047;-70
2022/03/30 10:08:59;;;;;;;26.27;14.57;;;21.90;33.60;;;;;;5133907;28;20019;-70
2022/03/30 10:11:27;;;;;;;26.27;16.38;;;22.00;33.60;;;;;;5133487;28;20159;-70
2022/03/30 10:14:03;;;;;;;21.23;14.10;;;22.10;33.40;;;;;;5133166;28;20031;-71
2022/03/30 10:16:29;;;;;;;22.75;14.13;;;22.10;33.30;;;;;;5133017;28;20785;-70
2022/03/30 10:18:56;;;;;;;25.27;15.82;;;22.30;33.10;;;;;;5133696;28;20098;-71
2022/03/30 10:21:34;;;;;;;20.33;15.10;;;22.40;32.90;;;;;;5133991;28;20047;-70
2022/03/30 10:24:17;;;;;;;22.83;16.63;;;22.40;32.80;;;;;;5132129;28;20032;-70
2022/03/30 10:27:10;;;;;;;20.23;13.73;;;22.50;32.70;;;;;;5115046;28;20114;-70
2022/03/30 10:29:37;;;;;;;25.02;14.40;;;22.60;32.80;;;;;;5113839;28;20027;-70
2022/03/30 10:32:36;;;;;;;29.30;16.85;;;22.70;32.20;;;;;;5114560;28;20023;-69
2022/03/30 10:35:09;;;;;;;22.05;14.23;;;22.70;32.20;;;;;;5029964;28;20140;-70
2022/03/30 10:37:42;;;;;;;20.67;15.32;;;22.80;32.00;;;;;;5013375;28;20065;-70
2022/03/30 10:40:20;;;;;;;29.35;16.50;;;22.90;31.80;;;;;;5029376;28;20058;-69
2022/03/30 10:42:46;;;;;;;20.38;14.38;;;22.90;31.20;;;;;;5012998;28;20481;-70
2022/03/30 10:45:26;;;;;;;22.67;15.07;;;22.90;31.40;;;;;;5013057;28;20067;-70
2022/03/30 10:48:17;;;;;;;23.95;15.50;;;22.90;31.20;;;;;;5029310;28;20041;-70
2022/03/30 10:50:58;;;;;;;20.83;13.85;;;23.00;31.20;;;;;;4977762;28;20165;-70
2022/03/30 10:53:35;;;;;;;25.90;14.32;;;23.00;31.00;;;;;;5025323;28;20091;-69
2022/03/30 10:56:21;;;;;;;33.08;16.02;;;23.00;30.80;;;;;;5043172;28;20036;-71
2022/03/30 10:58:50;;;;;;;22.27;15.55;;;23.00;30.70;;;;;;5033383;28;20128;-70
2022/03/30 11:01:22;;;;;;;23.60;15.82;;;22.90;30.20;;;;;;5033373;28;20030;-71
2022/03/30 11:04:04;;;;;;;24.30;15.30;;;22.90;30.00;;;;;;5016698;28;20144;-72
2022/03/30 11:06:34;;;;;;;24.95;15.48;;;22.80;30.40;;;;;;5033341;28;20104;-71
2022/03/30 11:09:02;;;;;;;19.50;14.15;;;22.80;30.40;;;;;;5017012;28;20488;-71
2022/03/30 11:11:39;;;;;;;25.85;15.65;;;22.80;30.80;;;;;;5114078;27;20064;-71
2022/03/30 11:14:36;;;;;;;22.20;14.13;;;22.90;30.70;;;;;;5117977;27;20084;-71
2022/03/30 11:17:32;;;;;;;20.95;13.65;;;23.00;31.00;;;;;;5119664;27;20077;-70
2022/03/30 11:19:58;;;;;;;22.42;15.57;;;23.10;30.90;;;;;;5145641;27;20045;-71
2022/03/30 11:22:29;;;;;;;25.10;14.95;;;23.20;30.30;;;;;;5133849;27;20079;-72
2022/03/30 11:25:14;;;;;;;26.40;15.30;;;23.30;30.00;;;;;;5117706;27;20030;-71
2022/03/30 11:27:41;;;;;;;19.45;14.43;;;23.30;29.80;;;;;;5136805;27;20445;-71
2022/03/30 11:30:17;;;;;;;17.98;13.88;;;23.30;30.50;;;;;;5136340;27;20020;-72
2022/03/30 11:32:50;;;;;;;20.42;14.18;;;23.40;29.90;;;;;;5124703;27;20039;-71
2022/03/30 11:35:18;;;;;;;24.52;15.02;;;23.40;30.00;;;;;;5097851;28;20034;-72
2022/03/30 11:37:47;;;;;;;18.98;14.25;;;23.60;30.00;;;;;;5135023;27;20106;-71
2022/03/30 11:40:21;;;;;;;20.27;14.00;;;23.70;29.80;;;;;;5117501;27;20051;-71
2022/03/30 11:42:59;;;;;;;22.50;14.77;;;23.80;29.70;;;;;;5130479;27;20037;-71
2022/03/30 11:45:27;;;;;;;19.88;14.00;;;23.90;29.40;;;;;;5117873;27;20031;-71
2022/03/30 11:48:02;;;;;;;21.88;13.23;;;24.00;29.50;;;;;;5116672;27;20023;-71
2022/03/30 11:50:34;;;;;;;32.17;15.85;;;24.10;29.50;;;;;;5117491;27;20091;-72
2022/03/30 11:53:01;;;;;;;22.17;13.88;;;24.20;28.70;;;;;;5135331;27;20031;-71
2022/03/30 11:55:51;;;;;;;23.10;14.55;;;24.30;28.90;;;;;;5136199;27;20050;-70
2022/03/30 11:58:49;;;;;;;20.55;14.32;;;24.30;28.80;;;;;;5129690;27;20489;-71
2022/03/30 12:01:16;;;;;;;21.70;14.32;;;24.40;28.90;;;;;;5116629;27;20058;-72
2022/03/30 12:03:43;;;;;;;21.67;14.45;;;24.50;28.40;;;;;;5117235;27;20482;-71
2022/03/30 12:06:11;;;;;;;26.38;13.95;;;24.60;28.10;;;;;;5118335;27;20063;-71
2022/03/30 12:08:45;;;;;;;22.45;15.77;;;24.60;27.90;;;;;;5117165;27;20026;-71
2022/03/30 12:11:13;;;;;;;26.08;14.43;;;24.70;27.60;;;;;;5117178;27;20031;-72
2022/03/30 12:13:38;;;;;;;22.00;13.23;;;24.70;27.50;;;;;;5117058;27;20058;-71
2022/03/30 12:16:10;;;;;;;44.88;17.70;;;24.70;28.00;;;;;;5135812;27;20419;-71
2022/03/30 12:18:49;;;;;;;19.98;14.38;;;24.80;28.00;;;;;;5134239;27;20370;-72
2022/03/30 12:21:20;;;;;;;22.33;13.88;;;24.90;28.00;;;;;;5126495;27;20015;-71
2022/03/30 12:23:49;;;;;;;19.65;14.10;;;25.00;27.70;;;;;;5128293;27;20071;-71
2022/03/30 12:26:16;;;;;;;23.58;16.15;;;25.10;27.70;;;;;;5135245;27;20031;-72
2022/03/30 12:28:42;;;;;;;23.65;15.45;;;25.20;27.10;;;;;;5117205;27;20027;-72
2022/03/30 12:31:10;;;;;;;23.92;13.43;;;25.20;27.20;;;;;;5117167;27;20088;-72
2022/03/30 12:33:48;;;;;;;23.40;14.63;;;25.30;27.30;;;;;;5116786;27;20027;-71
2022/03/30 12:36:16;;;;;;;20.08;13.30;;;25.30;27.00;;;;;;5117289;27;20038;-72
2022/03/30 12:38:42;;;;;;;24.52;14.77;;;25.40;27.00;;;;;;5111589;27;20488;-72
2022/03/30 12:41:08;;;;;;;24.77;15.93;;;25.50;26.80;;;;;;5098699;28;20035;-71
2022/03/30 12:43:33;;;;;;;28.67;15.98;;;25.50;26.50;;;;;;5114322;28;20030;-71
2022/03/30 12:46:03;;;;;;;21.67;14.63;;;25.50;26.40;;;;;;5114811;28;20032;-70
2022/03/30 12:48:34;;;;;;;24.15;16.08;;;25.50;26.20;;;;;;5114518;28;20030;-72